Thompson, Mississippi
Current Conditions -  °F | °C
As of 7:53 AM on Saturday 22 Nov 2014 (Local Time) from KMCB Reporting Station
Clear Clear  
Wind Chill: 53°   Ceiling: Unl
Heat Index: 53°   Visibility: 10mi
Dew Point: 44°   Wind: 6mph
Humidity: 71%   Direction: NA
Pressure: 30.25"   Gusts: NA
Location:  31.3682°N, 90.6714°W
Report Text: KMCB 221353Z AUTO VRB05KT 10SM CLR 12/07 A3025 RMK AO2 SLP240 T01170067
Loading
Personal Weather Stations






























Interactive Weather Map New forecast layout! Learn more

10-Day Weather Forecast

Advertisements
Track Severe Weather on mobile